Kezdőlap
METAR-TAF:

METAR-TAF

Repülőterek :

New Orleans, Louisiana, Amerikai Egyesült Államok

földrajzi szélesség: 29-59-34N, földrajzi hosszúság: 090-15-03W, magasság: 1 m

Jelenlegi meteorológiai megfigyelések

A jelentés 52 perccel ezelõtt készült, 18:53 UTC
Különbözõ irányokból fújó szél 3 kt
Hőmérséklet 17°C
Páratartalom 36%
Légköri nyomás 1023 hPa
Látótávolság: 16.1 km
Kevés felhő 25000 lábon

METAR: KMSY 161853Z VRB03KT 10SM FEW250 17/02 A3022 RMK AO2 SLP237 T01720017

Idő: 13:45 (19:45 UTC)

Előrejelzés

A jelentés 2 órával és 25 perccel ezelõtt készült, 17:20 UTC
Az előrejelzés 16-én 18 óra UTC és 17-én 24 óra UTC között érvényes
Északi szél kt
Látótávolság: 10 km
Derült ég

TAF: KMSY 161720Z 1618/1724 00000KT P6SM SKC

Meteorológiai megfigyelések és előrejelzések több, mint 4000 repülőtéren (METAR és TAF jelentéseket).

A térképen piros és sárga pontok jelzik az elérhető meteorológiai állomásokat.

Mozgassa az egeret a pont fölött, hogy megjelenjen az állomás neve.

Azután kattintson az időjárási megfigyelések és előrejelzések megtekintéséhez.

A térkép megváltoztatása: kattintson a fekete keresztel jelölt zöld gombra ráközelítéshez, a vonallal jelölt zöld gombra távolításhoz, vagy a zöld nyilakra a szomszédos térképek eléréséhez.


METAR-TAF: